sensor_id;sensor_type;location;lat;lon;timestamp;P1;durP1;ratioP1;P2;durP2;ratioP2
7529;SDS011;3806;52.270;10.544;2023-05-10T00:01:42;4.90;;;2.78;;
7529;SDS011;3806;52.270;10.544;2023-05-10T00:04:07;3.40;;;2.58;;
7529;SDS011;3806;52.270;10.544;2023-05-10T00:06:33;4.25;;;3.17;;
7529;SDS011;3806;52.270;10.544;2023-05-10T00:08:58;4.05;;;2.60;;
7529;SDS011;3806;52.270;10.544;2023-05-10T00:11:24;3.78;;;2.90;;
7529;SDS011;3806;52.270;10.544;2023-05-10T00:13:49;5.90;;;3.05;;
7529;SDS011;3806;52.270;10.544;2023-05-10T00:16:15;4.22;;;2.78;;
7529;SDS011;3806;52.270;10.544;2023-05-10T00:18:40;3.83;;;3.38;;
7529;SDS011;3806;52.270;10.544;2023-05-10T00:21:06;3.47;;;2.33;;
7529;SDS011;3806;52.270;10.544;2023-05-10T00:23:31;5.93;;;2.70;;
7529;SDS011;3806;52.270;10.544;2023-05-10T00:25:57;4.82;;;2.95;;
7529;SDS011;3806;52.270;10.544;2023-05-10T00:28:23;4.78;;;2.85;;
7529;SDS011;3806;52.270;10.544;2023-05-10T00:30:48;5.13;;;2.65;;
7529;SDS011;3806;52.270;10.544;2023-05-10T00:33:14;4.75;;;3.42;;
7529;SDS011;3806;52.270;10.544;2023-05-10T00:35:39;4.40;;;2.55;;
7529;SDS011;3806;52.270;10.544;2023-05-10T00:38:05;6.15;;;2.90;;
7529;SDS011;3806;52.270;10.544;2023-05-10T00:40:30;6.25;;;3.00;;
7529;SDS011;3806;52.270;10.544;2023-05-10T00:42:56;5.13;;;3.45;;
7529;SDS011;3806;52.270;10.544;2023-05-10T00:45:23;3.85;;;2.70;;
7529;SDS011;3806;52.270;10.544;2023-05-10T00:47:49;5.10;;;3.35;;
7529;SDS011;3806;52.270;10.544;2023-05-10T00:50:14;3.78;;;2.60;;
7529;SDS011;3806;52.270;10.544;2023-05-10T00:52:40;4.25;;;2.80;;
7529;SDS011;3806;52.270;10.544;2023-05-10T00:55:07;3.20;;;2.67;;
7529;SDS011;3806;52.270;10.544;2023-05-10T00:57:36;6.45;;;3.08;;
7529;SDS011;3806;52.270;10.544;2023-05-10T01:00:02;5.28;;;2.90;;
7529;SDS011;3806;52.270;10.544;2023-05-10T01:02:28;4.05;;;2.72;;
7529;SDS011;3806;52.270;10.544;2023-05-10T01:04:53;11.55;;;3.35;;
7529;SDS011;3806;52.270;10.544;2023-05-10T01:07:19;3.85;;;2.88;;
7529;SDS011;3806;52.270;10.544;2023-05-10T01:09:45;4.43;;;3.15;;
7529;SDS011;3806;52.270;10.544;2023-05-10T01:12:11;3.30;;;2.75;;
7529;SDS011;3806;52.270;10.544;2023-05-10T01:14:37;4.93;;;3.10;;
7529;SDS011;3806;52.270;10.544;2023-05-10T01:17:03;4.53;;;2.75;;
7529;SDS011;3806;52.270;10.544;2023-05-10T01:19:31;4.60;;;2.60;;
7529;SDS011;3806;52.270;10.544;2023-05-10T01:30:35;3.90;;;2.75;;
7529;SDS011;3806;52.270;10.544;2023-05-10T01:33:06;5.20;;;2.85;;
7529;SDS011;3806;52.270;10.544;2023-05-10T01:35:42;3.95;;;2.58;;
7529;SDS011;3806;52.270;10.544;2023-05-10T01:41:19;6.47;;;2.88;;
7529;SDS011;3806;52.270;10.544;2023-05-10T01:44:04;4.18;;;2.72;;
7529;SDS011;3806;52.270;10.544;2023-05-10T01:46:39;4.03;;;3.08;;
7529;SDS011;3806;52.270;10.544;2023-05-10T01:49:29;3.90;;;2.60;;
7529;SDS011;3806;52.270;10.544;2023-05-10T01:51:54;6.32;;;2.92;;
7529;SDS011;3806;52.270;10.544;2023-05-10T01:54:25;4.43;;;2.97;;
7529;SDS011;3806;52.270;10.544;2023-05-10T01:56:59;5.13;;;2.90;;
7529;SDS011;3806;52.270;10.544;2023-05-10T01:59:29;4.10;;;2.90;;
7529;SDS011;3806;52.270;10.544;2023-05-10T02:02:01;6.78;;;3.20;;
7529;SDS011;3806;52.270;10.544;2023-05-10T02:04:27;3.28;;;2.60;;
7529;SDS011;3806;52.270;10.544;2023-05-10T02:06:54;4.47;;;2.85;;
7529;SDS011;3806;52.270;10.544;2023-05-10T02:09:21;7.15;;;2.95;;
7529;SDS011;3806;52.270;10.544;2023-05-10T02:11:48;4.78;;;3.22;;
7529;SDS011;3806;52.270;10.544;2023-05-10T02:14:15;4.43;;;3.10;;
7529;SDS011;3806;52.270;10.544;2023-05-10T02:16:42;6.47;;;2.75;;
7529;SDS011;3806;52.270;10.544;2023-05-10T02:19:09;5.30;;;3.13;;
7529;SDS011;3806;52.270;10.544;2023-05-10T02:21:37;5.13;;;3.40;;
7529;SDS011;3806;52.270;10.544;2023-05-10T02:24:04;6.03;;;3.00;;
7529;SDS011;3806;52.270;10.544;2023-05-10T02:26:30;5.70;;;3.20;;
7529;SDS011;3806;52.270;10.544;2023-05-10T02:28:58;6.15;;;3.28;;
7529;SDS011;3806;52.270;10.544;2023-05-10T02:31:28;4.05;;;2.80;;
7529;SDS011;3806;52.270;10.544;2023-05-10T02:33:55;4.47;;;2.85;;
7529;SDS011;3806;52.270;10.544;2023-05-10T02:36:23;5.57;;;3.63;;
7529;SDS011;3806;52.270;10.544;2023-05-10T02:38:52;5.75;;;3.33;;
7529;SDS011;3806;52.270;10.544;2023-05-10T02:41:18;3.78;;;2.70;;
7529;SDS011;3806;52.270;10.544;2023-05-10T02:43:46;5.47;;;3.20;;
7529;SDS011;3806;52.270;10.544;2023-05-10T02:46:14;4.55;;;2.70;;
7529;SDS011;3806;52.270;10.544;2023-05-10T02:48:39;4.00;;;2.55;;
7529;SDS011;3806;52.270;10.544;2023-05-10T02:51:05;5.00;;;3.60;;
7529;SDS011;3806;52.270;10.544;2023-05-10T02:53:33;5.45;;;3.10;;
7529;SDS011;3806;52.270;10.544;2023-05-10T02:56:01;4.95;;;2.90;;
7529;SDS011;3806;52.270;10.544;2023-05-10T02:58:32;6.80;;;3.05;;
7529;SDS011;3806;52.270;10.544;2023-05-10T03:00:57;5.53;;;3.28;;
7529;SDS011;3806;52.270;10.544;2023-05-10T03:03:24;5.47;;;3.17;;
7529;SDS011;3806;52.270;10.544;2023-05-10T03:05:50;4.75;;;2.80;;
7529;SDS011;3806;52.270;10.544;2023-05-10T03:08:15;4.68;;;3.05;;
7529;SDS011;3806;52.270;10.544;2023-05-10T03:10:43;3.65;;;2.75;;
7529;SDS011;3806;52.270;10.544;2023-05-10T03:13:16;6.15;;;3.55;;
7529;SDS011;3806;52.270;10.544;2023-05-10T03:18:54;4.75;;;2.90;;
7529;SDS011;3806;52.270;10.544;2023-05-10T03:21:26;5.80;;;3.30;;
7529;SDS011;3806;52.270;10.544;2023-05-10T03:23:58;3.95;;;2.70;;
7529;SDS011;3806;52.270;10.544;2023-05-10T03:26:27;4.65;;;3.20;;
7529;SDS011;3806;52.270;10.544;2023-05-10T03:28:54;5.60;;;2.97;;
7529;SDS011;3806;52.270;10.544;2023-05-10T03:31:21;6.38;;;3.05;;
7529;SDS011;3806;52.270;10.544;2023-05-10T03:33:47;4.10;;;3.13;;
7529;SDS011;3806;52.270;10.544;2023-05-10T03:36:13;5.35;;;3.03;;
7529;SDS011;3806;52.270;10.544;2023-05-10T03:38:39;7.45;;;3.95;;
7529;SDS011;3806;52.270;10.544;2023-05-10T03:41:04;4.97;;;2.85;;
7529;SDS011;3806;52.270;10.544;2023-05-10T03:43:30;6.05;;;3.42;;
7529;SDS011;3806;52.270;10.544;2023-05-10T03:45:55;5.38;;;3.35;;
7529;SDS011;3806;52.270;10.544;2023-05-10T03:48:21;4.85;;;3.55;;
7529;SDS011;3806;52.270;10.544;2023-05-10T03:50:46;7.65;;;4.07;;
7529;SDS011;3806;52.270;10.544;2023-05-10T03:53:12;6.15;;;3.50;;
7529;SDS011;3806;52.270;10.544;2023-05-10T03:55:37;7.63;;;3.25;;
7529;SDS011;3806;52.270;10.544;2023-05-10T03:58:03;7.18;;;3.55;;
7529;SDS011;3806;52.270;10.544;2023-05-10T04:00:28;4.18;;;3.58;;
7529;SDS011;3806;52.270;10.544;2023-05-10T04:02:55;4.32;;;2.95;;
7529;SDS011;3806;52.270;10.544;2023-05-10T04:05:20;5.70;;;3.72;;
7529;SDS011;3806;52.270;10.544;2023-05-10T04:07:46;4.65;;;3.20;;
7529;SDS011;3806;52.270;10.544;2023-05-10T04:10:12;6.32;;;3.45;;
7529;SDS011;3806;52.270;10.544;2023-05-10T04:12:37;6.18;;;3.53;;
7529;SDS011;3806;52.270;10.544;2023-05-10T04:15:03;5.65;;;3.70;;
7529;SDS011;3806;52.270;10.544;2023-05-10T04:17:29;4.70;;;3.15;;
7529;SDS011;3806;52.270;10.544;2023-05-10T04:19:55;4.85;;;3.50;;
7529;SDS011;3806;52.270;10.544;2023-05-10T04:22:21;5.63;;;3.30;;
7529;SDS011;3806;52.270;10.544;2023-05-10T04:24:46;7.40;;;3.65;;
7529;SDS011;3806;52.270;10.544;2023-05-10T04:27:12;4.53;;;3.45;;
7529;SDS011;3806;52.270;10.544;2023-05-10T04:29:37;5.45;;;3.50;;
7529;SDS011;3806;52.270;10.544;2023-05-10T04:32:03;4.05;;;2.97;;
7529;SDS011;3806;52.270;10.544;2023-05-10T04:34:29;5.50;;;3.60;;
7529;SDS011;3806;52.270;10.544;2023-05-10T04:36:54;6.88;;;3.67;;
7529;SDS011;3806;52.270;10.544;2023-05-10T04:39:20;6.40;;;3.80;;
7529;SDS011;3806;52.270;10.544;2023-05-10T04:41:45;5.55;;;3.75;;
7529;SDS011;3806;52.270;10.544;2023-05-10T04:44:11;5.65;;;3.85;;
7529;SDS011;3806;52.270;10.544;2023-05-10T04:46:36;7.43;;;3.97;;
7529;SDS011;3806;52.270;10.544;2023-05-10T04:49:02;5.53;;;3.78;;
7529;SDS011;3806;52.270;10.544;2023-05-10T04:51:27;6.75;;;4.30;;
7529;SDS011;3806;52.270;10.544;2023-05-10T04:53:53;4.88;;;3.40;;
7529;SDS011;3806;52.270;10.544;2023-05-10T04:56:18;7.65;;;3.95;;
7529;SDS011;3806;52.270;10.544;2023-05-10T04:58:44;7.10;;;3.55;;
7529;SDS011;3806;52.270;10.544;2023-05-10T05:01:09;4.97;;;3.42;;
7529;SDS011;3806;52.270;10.544;2023-05-10T05:03:35;6.18;;;4.10;;
7529;SDS011;3806;52.270;10.544;2023-05-10T05:06:01;6.07;;;3.70;;
7529;SDS011;3806;52.270;10.544;2023-05-10T05:08:27;5.63;;;4.63;;
7529;SDS011;3806;52.270;10.544;2023-05-10T05:10:53;5.00;;;3.83;;
7529;SDS011;3806;52.270;10.544;2023-05-10T05:13:18;5.07;;;3.17;;
7529;SDS011;3806;52.270;10.544;2023-05-10T05:15:44;8.93;;;3.78;;
7529;SDS011;3806;52.270;10.544;2023-05-10T05:18:09;5.20;;;3.40;;
7529;SDS011;3806;52.270;10.544;2023-05-10T05:20:35;6.65;;;3.92;;
7529;SDS011;3806;52.270;10.544;2023-05-10T05:23:00;5.20;;;3.60;;
7529;SDS011;3806;52.270;10.544;2023-05-10T05:25:26;8.68;;;3.70;;
7529;SDS011;3806;52.270;10.544;2023-05-10T05:27:52;6.50;;;4.13;;
7529;SDS011;3806;52.270;10.544;2023-05-10T05:30:17;6.22;;;4.00;;
7529;SDS011;3806;52.270;10.544;2023-05-10T05:32:43;5.22;;;3.63;;
7529;SDS011;3806;52.270;10.544;2023-05-10T05:35:08;6.50;;;4.05;;
7529;SDS011;3806;52.270;10.544;2023-05-10T05:37:34;3.90;;;2.72;;
7529;SDS011;3806;52.270;10.544;2023-05-10T05:40:00;5.65;;;3.90;;
7529;SDS011;3806;52.270;10.544;2023-05-10T05:42:26;5.85;;;4.15;;
7529;SDS011;3806;52.270;10.544;2023-05-10T05:44:52;7.32;;;4.07;;
7529;SDS011;3806;52.270;10.544;2023-05-10T05:47:18;6.68;;;3.72;;
7529;SDS011;3806;52.270;10.544;2023-05-10T05:49:45;8.15;;;3.70;;
7529;SDS011;3806;52.270;10.544;2023-05-10T05:52:10;5.53;;;3.75;;
7529;SDS011;3806;52.270;10.544;2023-05-10T05:54:36;6.43;;;4.53;;
7529;SDS011;3806;52.270;10.544;2023-05-10T05:57:02;5.63;;;3.55;;
7529;SDS011;3806;52.270;10.544;2023-05-10T05:59:27;7.05;;;4.07;;
7529;SDS011;3806;52.270;10.544;2023-05-10T06:01:53;5.07;;;3.45;;
7529;SDS011;3806;52.270;10.544;2023-05-10T06:04:19;8.60;;;4.22;;
7529;SDS011;3806;52.270;10.544;2023-05-10T06:06:44;8.63;;;3.63;;
7529;SDS011;3806;52.270;10.544;2023-05-10T06:09:10;5.78;;;4.05;;
7529;SDS011;3806;52.270;10.544;2023-05-10T06:11:36;5.43;;;3.55;;
7529;SDS011;3806;52.270;10.544;2023-05-10T06:14:02;6.10;;;4.13;;
7529;SDS011;3806;52.270;10.544;2023-05-10T06:16:32;6.60;;;3.67;;
7529;SDS011;3806;52.270;10.544;2023-05-10T06:18:58;4.78;;;3.22;;
7529;SDS011;3806;52.270;10.544;2023-05-10T06:21:24;5.72;;;3.78;;
7529;SDS011;3806;52.270;10.544;2023-05-10T06:23:50;6.70;;;4.35;;
7529;SDS011;3806;52.270;10.544;2023-05-10T06:26:15;6.93;;;4.22;;
7529;SDS011;3806;52.270;10.544;2023-05-10T06:28:41;5.30;;;4.28;;
7529;SDS011;3806;52.270;10.544;2023-05-10T06:31:07;5.28;;;3.53;;
7529;SDS011;3806;52.270;10.544;2023-05-10T06:33:32;9.73;;;4.05;;
7529;SDS011;3806;52.270;10.544;2023-05-10T06:35:58;6.70;;;4.28;;
7529;SDS011;3806;52.270;10.544;2023-05-10T06:38:24;11.43;;;3.67;;
7529;SDS011;3806;52.270;10.544;2023-05-10T06:40:51;4.90;;;3.70;;
7529;SDS011;3806;52.270;10.544;2023-05-10T06:43:17;5.78;;;3.72;;
7529;SDS011;3806;52.270;10.544;2023-05-10T06:45:42;6.88;;;4.25;;
7529;SDS011;3806;52.270;10.544;2023-05-10T06:48:08;4.63;;;3.65;;
7529;SDS011;3806;52.270;10.544;2023-05-10T06:50:33;5.25;;;3.78;;
7529;SDS011;3806;52.270;10.544;2023-05-10T06:52:59;5.25;;;3.38;;
7529;SDS011;3806;52.270;10.544;2023-05-10T06:55:26;8.73;;;3.75;;
7529;SDS011;3806;52.270;10.544;2023-05-10T06:57:52;5.32;;;3.80;;
7529;SDS011;3806;52.270;10.544;2023-05-10T07:00:20;9.57;;;4.78;;
7529;SDS011;3806;52.270;10.544;2023-05-10T07:02:46;6.50;;;4.45;;
7529;SDS011;3806;52.270;10.544;2023-05-10T07:05:12;6.22;;;4.15;;
7529;SDS011;3806;52.270;10.544;2023-05-10T07:07:38;6.63;;;5.13;;
7529;SDS011;3806;52.270;10.544;2023-05-10T07:10:04;8.02;;;4.65;;
7529;SDS011;3806;52.270;10.544;2023-05-10T07:12:30;6.30;;;4.03;;
7529;SDS011;3806;52.270;10.544;2023-05-10T07:14:56;7.47;;;4.60;;
7529;SDS011;3806;52.270;10.544;2023-05-10T07:17:21;7.63;;;4.85;;
7529;SDS011;3806;52.270;10.544;2023-05-10T07:19:47;8.60;;;4.55;;
7529;SDS011;3806;52.270;10.544;2023-05-10T07:22:13;9.13;;;6.10;;
7529;SDS011;3806;52.270;10.544;2023-05-10T07:24:39;11.63;;;5.13;;
7529;SDS011;3806;52.270;10.544;2023-05-10T07:27:05;8.55;;;4.50;;
7529;SDS011;3806;52.270;10.544;2023-05-10T07:29:31;9.70;;;4.70;;
7529;SDS011;3806;52.270;10.544;2023-05-10T07:31:56;6.95;;;4.85;;
7529;SDS011;3806;52.270;10.544;2023-05-10T07:34:22;8.45;;;5.93;;
7529;SDS011;3806;52.270;10.544;2023-05-10T07:36:47;7.35;;;4.88;;
7529;SDS011;3806;52.270;10.544;2023-05-10T07:39:13;8.23;;;5.05;;
7529;SDS011;3806;52.270;10.544;2023-05-10T07:41:38;12.02;;;5.22;;
7529;SDS011;3806;52.270;10.544;2023-05-10T07:44:04;9.73;;;5.75;;
7529;SDS011;3806;52.270;10.544;2023-05-10T07:46:30;6.82;;;4.75;;
7529;SDS011;3806;52.270;10.544;2023-05-10T07:48:56;8.02;;;4.88;;
7529;SDS011;3806;52.270;10.544;2023-05-10T07:51:21;6.93;;;5.18;;
7529;SDS011;3806;52.270;10.544;2023-05-10T07:53:47;6.60;;;4.90;;
7529;SDS011;3806;52.270;10.544;2023-05-10T07:58:54;7.35;;;5.15;;
7529;SDS011;3806;52.270;10.544;2023-05-10T08:01:20;7.10;;;5.13;;
7529;SDS011;3806;52.270;10.544;2023-05-10T08:03:46;7.65;;;4.65;;
7529;SDS011;3806;52.270;10.544;2023-05-10T08:06:12;9.68;;;5.45;;
7529;SDS011;3806;52.270;10.544;2023-05-10T08:08:41;6.55;;;4.70;;
7529;SDS011;3806;52.270;10.544;2023-05-10T08:11:07;8.05;;;5.40;;
7529;SDS011;3806;52.270;10.544;2023-05-10T08:13:33;6.20;;;4.97;;
7529;SDS011;3806;52.270;10.544;2023-05-10T08:15:58;7.32;;;4.85;;
7529;SDS011;3806;52.270;10.544;2023-05-10T08:18:24;8.65;;;5.70;;
7529;SDS011;3806;52.270;10.544;2023-05-10T08:20:50;7.40;;;5.20;;
7529;SDS011;3806;52.270;10.544;2023-05-10T08:23:15;6.35;;;4.80;;
7529;SDS011;3806;52.270;10.544;2023-05-10T08:25:41;9.75;;;5.07;;
7529;SDS011;3806;52.270;10.544;2023-05-10T08:28:06;7.30;;;5.25;;
7529;SDS011;3806;52.270;10.544;2023-05-10T08:30:32;7.57;;;5.10;;
7529;SDS011;3806;52.270;10.544;2023-05-10T08:32:57;10.55;;;5.75;;
7529;SDS011;3806;52.270;10.544;2023-05-10T08:35:23;6.97;;;5.45;;
7529;SDS011;3806;52.270;10.544;2023-05-10T08:37:49;10.10;;;6.00;;
7529;SDS011;3806;52.270;10.544;2023-05-10T08:40:15;8.45;;;5.63;;
7529;SDS011;3806;52.270;10.544;2023-05-10T08:42:47;7.82;;;5.50;;
7529;SDS011;3806;52.270;10.544;2023-05-10T08:45:40;8.52;;;5.88;;
7529;SDS011;3806;52.270;10.544;2023-05-10T08:48:08;8.43;;;5.47;;
7529;SDS011;3806;52.270;10.544;2023-05-10T08:50:35;11.02;;;5.43;;
7529;SDS011;3806;52.270;10.544;2023-05-10T08:53:04;7.82;;;5.88;;
7529;SDS011;3806;52.270;10.544;2023-05-10T08:55:36;7.20;;;5.50;;
7529;SDS011;3806;52.270;10.544;2023-05-10T08:58:06;7.57;;;5.32;;
7529;SDS011;3806;52.270;10.544;2023-05-10T09:00:32;8.55;;;5.82;;
7529;SDS011;3806;52.270;10.544;2023-05-10T09:02:58;8.15;;;5.40;;
7529;SDS011;3806;52.270;10.544;2023-05-10T09:05:25;7.25;;;5.40;;
7529;SDS011;3806;52.270;10.544;2023-05-10T09:07:51;8.40;;;5.05;;
7529;SDS011;3806;52.270;10.544;2023-05-10T09:10:17;8.20;;;5.65;;
7529;SDS011;3806;52.270;10.544;2023-05-10T09:12:43;8.05;;;5.60;;
7529;SDS011;3806;52.270;10.544;2023-05-10T09:15:10;8.13;;;5.50;;
7529;SDS011;3806;52.270;10.544;2023-05-10T09:17:36;8.77;;;5.60;;
7529;SDS011;3806;52.270;10.544;2023-05-10T09:20:04;10.35;;;5.93;;
7529;SDS011;3806;52.270;10.544;2023-05-10T09:22:30;8.82;;;5.25;;
7529;SDS011;3806;52.270;10.544;2023-05-10T09:25:09;7.18;;;4.90;;
7529;SDS011;3806;52.270;10.544;2023-05-10T09:27:36;10.40;;;5.43;;
7529;SDS011;3806;52.270;10.544;2023-05-10T09:30:03;9.48;;;5.60;;
7529;SDS011;3806;52.270;10.544;2023-05-10T09:32:37;7.85;;;5.47;;
7529;SDS011;3806;52.270;10.544;2023-05-10T09:35:09;8.15;;;5.63;;
7529;SDS011;3806;52.270;10.544;2023-05-10T09:37:39;8.52;;;5.38;;
7529;SDS011;3806;52.270;10.544;2023-05-10T09:40:10;8.63;;;5.55;;
7529;SDS011;3806;52.270;10.544;2023-05-10T09:42:59;11.48;;;5.57;;
7529;SDS011;3806;52.270;10.544;2023-05-10T09:45:30;9.88;;;5.40;;
7529;SDS011;3806;52.270;10.544;2023-05-10T09:47:57;10.07;;;5.85;;
7529;SDS011;3806;52.270;10.544;2023-05-10T09:50:24;10.05;;;5.47;;
7529;SDS011;3806;52.270;10.544;2023-05-10T09:53:00;8.85;;;5.53;;
7529;SDS011;3806;52.270;10.544;2023-05-10T09:58:05;8.90;;;4.97;;
7529;SDS011;3806;52.270;10.544;2023-05-10T10:00:36;7.03;;;4.38;;
7529;SDS011;3806;52.270;10.544;2023-05-10T10:03:03;5.72;;;3.83;;
7529;SDS011;3806;52.270;10.544;2023-05-10T10:05:29;5.55;;;3.47;;
7529;SDS011;3806;52.270;10.544;2023-05-10T10:07:59;6.30;;;3.00;;
7529;SDS011;3806;52.270;10.544;2023-05-10T10:10:27;3.45;;;2.20;;
7529;SDS011;3806;52.270;10.544;2023-05-10T10:12:55;3.65;;;2.20;;
7529;SDS011;3806;52.270;10.544;2023-05-10T10:15:21;1.50;;;1.20;;
7529;SDS011;3806;52.270;10.544;2023-05-10T10:17:48;2.00;;;1.27;;
7529;SDS011;3806;52.270;10.544;2023-05-10T10:20:15;1.30;;;1.20;;
7529;SDS011;3806;52.270;10.544;2023-05-10T10:22:41;2.33;;;1.33;;
7529;SDS011;3806;52.270;10.544;2023-05-10T10:25:09;2.35;;;1.42;;
7529;SDS011;3806;52.270;10.544;2023-05-10T10:30:50;2.95;;;1.10;;
7529;SDS011;3806;52.270;10.544;2023-05-10T10:33:26;1.05;;;0.82;;
7529;SDS011;3806;52.270;10.544;2023-05-10T10:36:13;1.02;;;0.63;;
7529;SDS011;3806;52.270;10.544;2023-05-10T10:41:27;1.15;;;0.80;;
7529;SDS011;3806;52.270;10.544;2023-05-10T10:46:58;2.22;;;0.73;;
7529;SDS011;3806;52.270;10.544;2023-05-10T10:49:27;1.70;;;0.70;;
7529;SDS011;3806;52.270;10.544;2023-05-10T10:54:56;1.05;;;0.68;;
7529;SDS011;3806;52.270;10.544;2023-05-10T10:57:26;0.65;;;0.65;;
7529;SDS011;3806;52.270;10.544;2023-05-10T11:02:48;1.17;;;0.90;;
7529;SDS011;3806;52.270;10.544;2023-05-10T11:07:56;1.10;;;0.80;;
7529;SDS011;3806;52.270;10.544;2023-05-10T11:10:23;1.70;;;0.88;;
7529;SDS011;3806;52.270;10.544;2023-05-10T11:12:52;1.42;;;0.90;;
7529;SDS011;3806;52.270;10.544;2023-05-10T11:15:31;0.95;;;0.73;;
7529;SDS011;3806;52.270;10.544;2023-05-10T11:18:20;1.00;;;0.90;;
7529;SDS011;3806;52.270;10.544;2023-05-10T11:23:20;1.30;;;1.00;;
7529;SDS011;3806;52.270;10.544;2023-05-10T11:25:46;0.60;;;0.45;;
7529;SDS011;3806;52.270;10.544;2023-05-10T11:28:13;0.98;;;0.88;;
7529;SDS011;3806;52.270;10.544;2023-05-10T11:30:39;1.52;;;1.33;;
7529;SDS011;3806;52.270;10.544;2023-05-10T11:33:06;0.90;;;0.80;;
7529;SDS011;3806;52.270;10.544;2023-05-10T11:35:39;1.42;;;1.02;;
7529;SDS011;3806;52.270;10.544;2023-05-10T11:38:06;1.20;;;0.73;;
7529;SDS011;3806;52.270;10.544;2023-05-10T11:40:35;0.77;;;0.77;;
7529;SDS011;3806;52.270;10.544;2023-05-10T11:43:02;3.90;;;0.82;;
7529;SDS011;3806;52.270;10.544;2023-05-10T11:45:29;1.02;;;0.90;;
7529;SDS011;3806;52.270;10.544;2023-05-10T11:47:58;1.55;;;0.95;;
7529;SDS011;3806;52.270;10.544;2023-05-10T11:50:24;0.70;;;0.70;;
7529;SDS011;3806;52.270;10.544;2023-05-10T11:52:54;1.17;;;0.88;;
7529;SDS011;3806;52.270;10.544;2023-05-10T11:55:21;2.20;;;0.95;;
7529;SDS011;3806;52.270;10.544;2023-05-10T11:57:47;2.75;;;0.95;;
7529;SDS011;3806;52.270;10.544;2023-05-10T12:00:16;2.03;;;1.00;;
7529;SDS011;3806;52.270;10.544;2023-05-10T12:02:41;1.23;;;0.90;;
7529;SDS011;3806;52.270;10.544;2023-05-10T12:05:07;0.55;;;0.55;;
7529;SDS011;3806;52.270;10.544;2023-05-10T12:07:34;1.33;;;0.80;;
7529;SDS011;3806;52.270;10.544;2023-05-10T12:10:06;2.70;;;1.50;;
7529;SDS011;3806;52.270;10.544;2023-05-10T12:12:40;0.70;;;0.70;;
7529;SDS011;3806;52.270;10.544;2023-05-10T12:15:10;1.52;;;0.93;;
7529;SDS011;3806;52.270;10.544;2023-05-10T12:17:44;1.70;;;0.55;;
7529;SDS011;3806;52.270;10.544;2023-05-10T12:20:17;0.70;;;0.70;;
7529;SDS011;3806;52.270;10.544;2023-05-10T12:22:54;1.70;;;0.80;;
7529;SDS011;3806;52.270;10.544;2023-05-10T12:25:21;2.55;;;0.80;;
7529;SDS011;3806;52.270;10.544;2023-05-10T12:27:48;1.10;;;1.00;;
7529;SDS011;3806;52.270;10.544;2023-05-10T12:30:18;2.30;;;0.98;;
7529;SDS011;3806;52.270;10.544;2023-05-10T12:32:45;2.00;;;0.98;;
7529;SDS011;3806;52.270;10.544;2023-05-10T12:35:10;1.83;;;0.75;;
7529;SDS011;3806;52.270;10.544;2023-05-10T12:37:36;1.92;;;0.98;;
7529;SDS011;3806;52.270;10.544;2023-05-10T12:40:06;3.22;;;1.02;;
7529;SDS011;3806;52.270;10.544;2023-05-10T12:42:33;0.65;;;0.43;;
7529;SDS011;3806;52.270;10.544;2023-05-10T12:45:00;1.38;;;0.98;;
7529;SDS011;3806;52.270;10.544;2023-05-10T12:47:26;1.15;;;0.70;;
7529;SDS011;3806;52.270;10.544;2023-05-10T12:49:52;1.10;;;0.70;;
7529;SDS011;3806;52.270;10.544;2023-05-10T12:52:17;1.17;;;0.82;;
7529;SDS011;3806;52.270;10.544;2023-05-10T12:54:43;1.13;;;0.80;;
7529;SDS011;3806;52.270;10.544;2023-05-10T12:57:08;0.88;;;0.70;;
7529;SDS011;3806;52.270;10.544;2023-05-10T12:59:34;1.45;;;0.80;;
7529;SDS011;3806;52.270;10.544;2023-05-10T13:02:00;1.27;;;0.80;;
7529;SDS011;3806;52.270;10.544;2023-05-10T13:04:25;2.08;;;0.88;;
7529;SDS011;3806;52.270;10.544;2023-05-10T13:06:51;3.72;;;1.13;;
7529;SDS011;3806;52.270;10.544;2023-05-10T13:09:16;3.67;;;1.00;;
7529;SDS011;3806;52.270;10.544;2023-05-10T13:11:42;2.42;;;0.77;;
7529;SDS011;3806;52.270;10.544;2023-05-10T13:14:07;2.60;;;0.82;;
7529;SDS011;3806;52.270;10.544;2023-05-10T13:16:33;2.20;;;0.90;;
7529;SDS011;3806;52.270;10.544;2023-05-10T13:18:58;3.97;;;0.90;;
7529;SDS011;3806;52.270;10.544;2023-05-10T13:21:24;1.23;;;0.85;;
7529;SDS011;3806;52.270;10.544;2023-05-10T13:23:50;1.00;;;0.70;;
7529;SDS011;3806;52.270;10.544;2023-05-10T13:26:15;2.28;;;0.73;;
7529;SDS011;3806;52.270;10.544;2023-05-10T13:28:41;1.70;;;0.70;;
7529;SDS011;3806;52.270;10.544;2023-05-10T13:31:07;1.50;;;1.10;;
7529;SDS011;3806;52.270;10.544;2023-05-10T13:33:32;2.63;;;0.93;;
7529;SDS011;3806;52.270;10.544;2023-05-10T13:35:58;3.88;;;1.10;;
7529;SDS011;3806;52.270;10.544;2023-05-10T13:38:23;1.33;;;0.77;;
7529;SDS011;3806;52.270;10.544;2023-05-10T13:40:49;2.08;;;0.90;;
7529;SDS011;3806;52.270;10.544;2023-05-10T13:43:17;4.47;;;1.17;;
7529;SDS011;3806;52.270;10.544;2023-05-10T13:45:43;0.73;;;0.68;;
7529;SDS011;3806;52.270;10.544;2023-05-10T13:48:09;1.08;;;0.90;;
7529;SDS011;3806;52.270;10.544;2023-05-10T13:50:34;1.50;;;0.73;;
7529;SDS011;3806;52.270;10.544;2023-05-10T13:53:00;3.65;;;0.90;;
7529;SDS011;3806;52.270;10.544;2023-05-10T13:55:25;1.45;;;0.90;;
7529;SDS011;3806;52.270;10.544;2023-05-10T13:57:51;1.65;;;1.17;;
7529;SDS011;3806;52.270;10.544;2023-05-10T14:00:17;2.00;;;1.10;;
7529;SDS011;3806;52.270;10.544;2023-05-10T14:02:42;1.92;;;1.20;;
7529;SDS011;3806;52.270;10.544;2023-05-10T14:05:08;1.90;;;1.15;;
7529;SDS011;3806;52.270;10.544;2023-05-10T14:07:34;1.88;;;1.02;;
7529;SDS011;3806;52.270;10.544;2023-05-10T14:09:59;3.50;;;1.27;;
7529;SDS011;3806;52.270;10.544;2023-05-10T14:12:25;3.03;;;1.20;;
7529;SDS011;3806;52.270;10.544;2023-05-10T14:14:51;3.05;;;1.30;;
7529;SDS011;3806;52.270;10.544;2023-05-10T14:17:17;1.85;;;0.88;;
7529;SDS011;3806;52.270;10.544;2023-05-10T14:19:42;4.03;;;1.05;;
7529;SDS011;3806;52.270;10.544;2023-05-10T14:22:08;6.15;;;1.15;;
7529;SDS011;3806;52.270;10.544;2023-05-10T14:24:34;3.50;;;1.15;;
7529;SDS011;3806;52.270;10.544;2023-05-10T14:26:59;2.38;;;0.80;;
7529;SDS011;3806;52.270;10.544;2023-05-10T14:29:25;2.17;;;0.80;;
7529;SDS011;3806;52.270;10.544;2023-05-10T14:31:51;1.95;;;0.93;;
7529;SDS011;3806;52.270;10.544;2023-05-10T14:34:16;4.03;;;1.13;;
7529;SDS011;3806;52.270;10.544;2023-05-10T14:36:42;2.30;;;0.68;;
7529;SDS011;3806;52.270;10.544;2023-05-10T14:39:07;2.20;;;1.10;;
7529;SDS011;3806;52.270;10.544;2023-05-10T14:41:35;1.40;;;0.80;;
7529;SDS011;3806;52.270;10.544;2023-05-10T14:44:00;2.03;;;0.80;;
7529;SDS011;3806;52.270;10.544;2023-05-10T14:46:28;0.85;;;0.70;;
7529;SDS011;3806;52.270;10.544;2023-05-10T14:48:54;1.50;;;0.82;;
7529;SDS011;3806;52.270;10.544;2023-05-10T14:51:20;1.35;;;0.90;;
7529;SDS011;3806;52.270;10.544;2023-05-10T14:53:50;1.98;;;1.13;;
7529;SDS011;3806;52.270;10.544;2023-05-10T14:56:16;0.95;;;0.73;;
7529;SDS011;3806;52.270;10.544;2023-05-10T14:58:43;1.92;;;0.98;;
7529;SDS011;3806;52.270;10.544;2023-05-10T15:01:08;1.48;;;1.00;;
7529;SDS011;3806;52.270;10.544;2023-05-10T15:03:34;1.85;;;0.90;;
7529;SDS011;3806;52.270;10.544;2023-05-10T15:05:59;1.23;;;1.10;;
7529;SDS011;3806;52.270;10.544;2023-05-10T15:08:25;4.28;;;0.95;;
7529;SDS011;3806;52.270;10.544;2023-05-10T15:10:51;1.92;;;1.13;;
7529;SDS011;3806;52.270;10.544;2023-05-10T15:13:16;1.75;;;0.73;;
7529;SDS011;3806;52.270;10.544;2023-05-10T15:15:42;1.52;;;1.10;;
7529;SDS011;3806;52.270;10.544;2023-05-10T15:18:08;1.50;;;0.90;;
7529;SDS011;3806;52.270;10.544;2023-05-10T15:20:35;1.63;;;0.90;;
7529;SDS011;3806;52.270;10.544;2023-05-10T15:23:01;1.42;;;0.88;;
7529;SDS011;3806;52.270;10.544;2023-05-10T15:25:26;0.93;;;0.75;;
7529;SDS011;3806;52.270;10.544;2023-05-10T15:27:53;1.40;;;0.95;;
7529;SDS011;3806;52.270;10.544;2023-05-10T15:30:19;1.48;;;0.95;;
7529;SDS011;3806;52.270;10.544;2023-05-10T15:32:45;0.93;;;0.63;;
7529;SDS011;3806;52.270;10.544;2023-05-10T15:35:11;1.88;;;1.00;;
7529;SDS011;3806;52.270;10.544;2023-05-10T15:37:37;1.60;;;1.20;;
7529;SDS011;3806;52.270;10.544;2023-05-10T15:40:03;1.38;;;1.00;;